Time;durP1;ratioP1;P1;durP2;ratioP2;P2;SDS_P1;SDS_P2;PMS_P1;PMS_P2;Temp;Humidity;BMP_temperature;BMP_pressure;BME280_temperature;BME280_humidity;BME280_pressure;Samples;Min_cycle;Max_cycle;Signal;HPM_P1;HPM_P2
2021/10/04 00:00:09;;;;;;;2.30;0.90;;;;;;;13.37;94.77;96128.31;4973353;28;20026;-81
2021/10/04 00:06:25;;;;;;;2.33;1.10;;;;;;;13.33;95.46;96134.97;4972027;28;20115;-82
2021/10/04 00:08:50;;;;;;;1.67;0.97;;;;;;;13.33;95.84;96140.25;4968634;28;20034;-81
2021/10/04 00:11:17;;;;;;;1.60;0.90;;;;;;;13.30;96.18;96138.78;4939669;28;20409;-81
2021/10/04 00:13:43;;;;;;;1.53;0.73;;;;;;;13.40;95.84;96147.28;4956693;28;20034;-81
2021/10/04 00:16:15;;;;;;;2.20;0.97;;;;;;;13.33;96.54;96142.91;4968142;28;20041;-81
2021/10/04 00:18:41;;;;;;;1.73;0.87;;;;;;;13.25;96.94;96153.53;4953325;28;20027;-82
2021/10/04 00:21:18;;;;;;;2.30;1.03;;;;;;;13.25;97.29;96146.44;4936970;29;20110;-81
2021/10/04 00:23:44;;;;;;;2.33;1.20;;;;;;;13.21;97.91;96156.50;4956185;28;20038;-81
2021/10/04 00:26:10;;;;;;;1.87;0.90;;;;;;;13.13;98.31;96145.19;4972993;28;20096;-80
2021/10/04 00:28:38;;;;;;;1.30;1.00;;;;;;;13.23;97.76;96148.38;4972807;28;20046;-81
2021/10/04 00:31:04;;;;;;;2.07;1.03;;;;;;;13.18;97.96;96153.41;4972825;28;20485;-81
2021/10/04 00:33:30;;;;;;;3.83;1.20;;;;;;;13.15;97.87;96151.09;4952838;28;20049;-81
2021/10/04 00:35:56;;;;;;;2.77;1.10;;;;;;;13.13;96.72;96153.91;4956279;28;20027;-81
2021/10/04 00:38:44;;;;;;;2.03;0.80;;;;;;;13.15;96.49;96151.09;4970980;28;20078;-81
2021/10/04 00:41:10;;;;;;;1.60;0.83;;;;;;;13.19;96.02;96147.94;4952349;28;20133;-81
2021/10/04 00:43:35;;;;;;;2.83;0.90;;;;;;;13.16;95.52;96144.81;4973388;28;20138;-81
2021/10/04 00:46:05;;;;;;;2.07;0.70;;;;;;;13.16;95.47;96155.38;4955425;28;20041;-81
2021/10/04 00:48:31;;;;;;;2.30;0.80;;;;;;;13.11;95.90;96155.06;4972682;28;20035;-81
2021/10/04 00:50:57;;;;;;;1.10;0.70;;;;;;;13.11;95.44;96155.94;4954997;28;20485;-82
2021/10/04 00:53:24;;;;;;;1.40;0.90;;;;;;;13.13;95.44;96163.66;4951481;28;20039;-81
2021/10/04 00:55:50;;;;;;;2.00;0.90;;;;;;;13.12;95.98;96159.38;4954143;28;20023;-82
2021/10/04 00:58:17;;;;;;;2.00;0.90;;;;;;;13.13;95.77;96158.38;4951991;28;20035;-81
2021/10/04 01:00:42;;;;;;;1.90;0.80;;;;;;;13.07;95.56;96153.78;4939018;28;20034;-81
2021/10/04 01:03:08;;;;;;;1.57;0.70;;;;;;;13.11;95.66;96165.63;4972378;28;20041;-81
2021/10/04 01:05:36;;;;;;;1.87;0.87;;;;;;;13.11;96.01;96169.13;4971927;28;20110;-81
2021/10/04 01:08:04;;;;;;;1.90;0.83;;;;;;;13.10;95.92;96171.94;4933973;29;20094;-81
2021/10/04 01:10:30;;;;;;;1.67;1.00;;;;;;;13.11;95.87;96170.91;4954219;28;20111;-81
2021/10/04 01:12:56;;;;;;;2.10;1.00;;;;;;;13.12;95.43;96165.47;4972539;28;20173;-81
2021/10/04 01:15:22;;;;;;;1.83;0.90;;;;;;;13.15;95.78;96166.94;4938393;28;20113;-81
2021/10/04 01:17:48;;;;;;;1.87;0.70;;;;;;;13.12;96.04;96172.59;4964963;28;20047;-81
2021/10/04 01:20:22;;;;;;;1.53;0.80;;;;;;;13.09;95.57;96167.66;4955182;28;20142;-81
2021/10/04 01:22:52;;;;;;;2.47;0.90;;;;;;;13.08;95.72;96166.03;4939035;28;20030;-81
2021/10/04 01:25:20;;;;;;;1.60;0.87;;;;;;;13.08;95.61;96166.84;4972650;28;20039;-81
2021/10/04 01:27:48;;;;;;;1.40;0.80;;;;;;;13.09;95.46;96157.09;4955565;28;20022;-81
2021/10/04 01:30:17;;;;;;;1.67;1.00;;;;;;;13.04;95.50;96154.16;4939286;28;20031;-81
2021/10/04 01:32:43;;;;;;;1.73;0.80;;;;;;;12.94;95.39;96152.59;4964605;28;20025;-81
2021/10/04 01:35:10;;;;;;;1.57;0.90;;;;;;;12.90;94.52;96159.19;4954777;28;20121;-81
2021/10/04 01:37:36;;;;;;;1.53;0.80;;;;;;;12.85;93.32;96158.09;4945410;28;20062;-81
2021/10/04 01:40:05;;;;;;;1.57;0.83;;;;;;;12.84;94.14;96157.25;4971895;28;20038;-81
2021/10/04 01:42:30;;;;;;;2.17;0.80;;;;;;;12.92;93.10;96154.56;4953846;28;20460;-81
2021/10/04 01:44:56;;;;;;;1.43;0.80;;;;;;;12.89;91.16;96156.75;4947691;28;20046;-82
2021/10/04 01:47:22;;;;;;;1.60;0.80;;;;;;;12.85;91.35;96153.63;4954426;28;20113;-81
2021/10/04 01:49:47;;;;;;;1.73;0.67;;;;;;;12.89;91.66;96141.72;4970566;28;20508;-81
2021/10/04 01:52:14;;;;;;;0.80;0.60;;;;;;;12.82;92.13;96138.16;4954557;28;20106;-81
2021/10/04 01:54:42;;;;;;;1.03;0.67;;;;;;;12.84;91.72;96136.13;4949192;28;20581;-81
2021/10/04 01:57:09;;;;;;;1.50;0.50;;;;;;;12.78;92.28;96136.03;4972592;28;20030;-81
2021/10/04 01:59:36;;;;;;;1.37;0.93;;;;;;;12.86;92.03;96149.97;4963062;28;20041;-81
2021/10/04 02:02:03;;;;;;;1.20;0.60;;;;;;;12.81;92.71;96148.84;4963872;28;20023;-81
2021/10/04 02:04:29;;;;;;;1.50;0.83;;;;;;;12.78;93.03;96155.34;4955182;28;20035;-81
2021/10/04 02:06:54;;;;;;;1.37;0.77;;;;;;;12.77;93.26;96158.94;4936764;28;20034;-81
2021/10/04 02:09:20;;;;;;;2.70;0.93;;;;;;;12.71;93.13;96155.22;4953606;28;20034;-81
2021/10/04 02:11:46;;;;;;;1.60;0.97;;;;;;;12.73;92.41;96160.28;4943959;28;20019;-81
2021/10/04 02:14:15;;;;;;;1.20;0.80;;;;;;;12.70;92.95;96158.00;4954790;28;20041;-81
2021/10/04 02:16:41;;;;;;;1.37;0.70;;;;;;;12.71;92.26;96180.78;4948804;28;20038;-81
2021/10/04 02:19:06;;;;;;;1.70;0.73;;;;;;;12.69;92.98;96183.56;4968372;28;20100;-80
2021/10/04 02:21:32;;;;;;;0.87;0.70;;;;;;;12.62;93.51;96190.53;4971448;28;20473;-81
2021/10/04 02:23:58;;;;;;;1.00;0.70;;;;;;;12.63;93.80;96188.72;4955569;28;20109;-80
2021/10/04 02:26:24;;;;;;;1.00;0.70;;;;;;;12.57;94.63;96190.22;4948281;28;20094;-81
2021/10/04 02:28:52;;;;;;;0.90;0.60;;;;;;;12.54;95.46;96181.84;4974327;28;20392;-81
2021/10/04 02:31:28;;;;;;;1.43;0.80;;;;;;;12.45;95.60;96175.78;4954658;28;20796;-81
2021/10/04 02:33:53;;;;;;;3.67;0.90;;;;;;;12.48;96.38;96191.28;4937667;28;20452;-81
2021/10/04 02:36:23;;;;;;;2.07;1.07;;;;;;;12.45;96.18;96196.88;4954350;28;20118;-81
2021/10/04 02:38:51;;;;;;;1.93;0.80;;;;;;;12.42;97.25;96190.13;4953850;28;20037;-81
2021/10/04 02:41:17;;;;;;;2.80;1.10;;;;;;;12.38;97.46;96191.47;4972906;28;20026;-81
2021/10/04 02:43:43;;;;;;;1.40;0.87;;;;;;;12.46;97.27;96194.06;4956236;28;20026;-81
2021/10/04 02:46:09;;;;;;;1.17;0.80;;;;;;;12.40;97.64;96199.19;4940336;28;20346;-81
2021/10/04 02:48:34;;;;;;;1.30;0.80;;;;;;;12.39;96.60;96197.56;4955615;28;20485;-80
2021/10/04 02:51:01;;;;;;;2.43;1.03;;;;;;;12.37;96.90;96204.81;4973978;28;20045;-81
2021/10/04 02:53:27;;;;;;;1.57;1.00;;;;;;;12.39;96.51;96198.38;4955492;28;20038;-81
2021/10/04 02:55:53;;;;;;;1.70;0.80;;;;;;;12.31;97.48;96198.44;4944456;29;20055;-81
2021/10/04 02:58:28;;;;;;;2.73;0.80;;;;;;;12.23;98.16;96201.09;4936139;28;20042;-81
2021/10/04 03:01:01;;;;;;;2.13;0.70;;;;;;;12.26;98.28;96192.84;4952298;28;20042;-81
2021/10/04 03:03:27;;;;;;;2.87;0.70;;;;;;;12.26;98.05;96190.19;4935889;28;20035;-81
2021/10/04 03:05:52;;;;;;;1.80;0.90;;;;;;;12.22;99.00;96189.72;4947283;28;20545;-81
2021/10/04 03:08:18;;;;;;;1.97;0.90;;;;;;;12.18;99.82;96187.59;4964524;28;20038;-80
2021/10/04 03:10:44;;;;;;;2.27;0.93;;;;;;;12.20;99.59;96190.88;4953692;28;20058;-80
2021/10/04 03:13:16;;;;;;;2.83;0.97;;;;;;;12.09;99.92;96196.53;4970043;28;20062;-81
2021/10/04 03:15:42;;;;;;;1.23;0.73;;;;;;;12.12;100.00;96199.63;4930611;28;20082;-81
2021/10/04 03:18:10;;;;;;;2.13;1.00;;;;;;;12.01;100.00;96185.00;4928678;28;20034;-81
2021/10/04 03:20:36;;;;;;;1.77;0.80;;;;;;;11.96;100.00;96186.50;4963861;28;20031;-81
2021/10/04 03:23:03;;;;;;;2.37;1.00;;;;;;;12.12;100.00;96186.47;4949394;28;20057;-81
2021/10/04 03:25:30;;;;;;;2.43;1.10;;;;;;;12.08;100.00;96195.72;4950788;28;20027;-81
2021/10/04 03:27:55;;;;;;;1.80;0.90;;;;;;;12.02;100.00;96206.91;4936049;28;20370;-81
2021/10/04 03:30:21;;;;;;;1.63;0.60;;;;;;;11.92;100.00;96216.81;4934684;28;20050;-81
2021/10/04 03:32:48;;;;;;;2.47;1.47;;;;;;;11.92;100.00;96219.47;4951132;28;20033;-80
2021/10/04 03:35:15;;;;;;;3.33;1.00;;;;;;;11.89;100.00;96212.72;4939586;28;20042;-81
2021/10/04 03:37:41;;;;;;;2.03;0.90;;;;;;;11.87;100.00;96214.72;4929268;28;20022;-81
2021/10/04 03:40:08;;;;;;;3.47;1.00;;;;;;;11.96;100.00;96202.31;4965964;28;20658;-80
2021/10/04 03:42:34;;;;;;;1.77;0.80;;;;;;;11.98;100.00;96203.81;4951115;28;20051;-81
2021/10/04 03:45:00;;;;;;;2.07;0.93;;;;;;;11.95;100.00;96206.78;4968853;28;20393;-81
2021/10/04 03:47:27;;;;;;;1.47;0.80;;;;;;;11.99;100.00;96208.06;4944245;28;20046;-81
2021/10/04 03:49:55;;;;;;;1.90;0.97;;;;;;;11.95;100.00;96224.41;4947216;28;20031;-81
2021/10/04 03:52:20;;;;;;;2.33;0.90;;;;;;;11.99;100.00;96225.69;4952689;28;20489;-81
2021/10/04 03:54:46;;;;;;;2.13;1.17;;;;;;;11.95;100.00;96233.13;4953164;28;20126;-80
2021/10/04 03:57:12;;;;;;;1.60;0.80;;;;;;;11.97;100.00;96231.16;4969090;28;20110;-81
2021/10/04 03:59:42;;;;;;;3.53;1.70;;;;;;;11.88;100.00;96237.44;4930127;28;20070;-80
2021/10/04 04:02:11;;;;;;;2.53;1.30;;;;;;;11.79;100.00;96233.94;4951073;28;20033;-81
2021/10/04 04:04:38;;;;;;;1.47;1.10;;;;;;;11.75;100.00;96235.25;4953580;28;20485;-81
2021/10/04 04:07:04;;;;;;;2.10;1.10;;;;;;;11.76;100.00;96236.91;4938524;28;20034;-81
2021/10/04 04:09:35;;;;;;;2.63;0.83;;;;;;;11.68;100.00;96236.09;4963242;28;20151;-81
2021/10/04 04:12:02;;;;;;;2.30;0.93;;;;;;;11.67;100.00;96234.44;4955983;28;20159;-80
2021/10/04 04:14:27;;;;;;;3.00;0.97;;;;;;;11.66;100.00;96230.16;4972632;28;20050;-81
2021/10/04 04:16:53;;;;;;;1.33;0.83;;;;;;;11.63;100.00;96228.69;4939291;28;20129;-81
2021/10/04 04:19:19;;;;;;;1.60;1.10;;;;;;;11.53;100.00;96235.94;4942836;28;20053;-81
2021/10/04 04:21:45;;;;;;;2.53;1.17;;;;;;;11.65;100.00;96236.44;4973048;28;20088;-80
2021/10/04 04:24:11;;;;;;;2.27;0.90;;;;;;;11.47;100.00;96250.59;4955316;28;20026;-82
2021/10/04 04:26:38;;;;;;;1.47;0.90;;;;;;;11.50;100.00;96255.53;4943927;28;20031;-81
2021/10/04 04:29:04;;;;;;;1.40;1.00;;;;;;;11.62;100.00;96255.19;4968866;28;20033;-82
2021/10/04 04:31:39;;;;;;;2.23;1.20;;;;;;;11.49;100.00;96259.13;4954946;28;20560;-82
2021/10/04 04:34:10;;;;;;;1.83;1.30;;;;;;;11.46;100.00;96254.19;4961984;28;20059;-82
2021/10/04 04:36:38;;;;;;;1.37;0.90;;;;;;;11.47;100.00;96255.84;4955661;28;20030;-82
2021/10/04 04:39:04;;;;;;;1.60;1.13;;;;;;;11.47;100.00;96239.25;4951221;28;20189;-82
2021/10/04 04:41:33;;;;;;;7.60;4.47;;;;;;;11.40;100.00;96228.53;4956062;28;20046;-81
2021/10/04 04:43:59;;;;;;;4.90;2.27;;;;;;;11.39;100.00;96232.13;4952022;28;20505;-82
2021/10/04 04:46:25;;;;;;;2.70;1.00;;;;;;;11.49;100.00;96242.50;4954130;28;20042;-82
2021/10/04 04:48:50;;;;;;;2.60;1.00;;;;;;;11.50;100.00;96245.00;4967581;28;20587;-82
2021/10/04 04:51:16;;;;;;;1.67;1.10;;;;;;;11.36;100.00;96260.59;4955541;28;20401;-81
2021/10/04 04:53:43;;;;;;;1.50;1.03;;;;;;;11.36;100.00;96277.22;4953456;28;20068;-82
2021/10/04 04:56:10;;;;;;;1.27;0.80;;;;;;;11.31;100.00;96269.00;4953145;28;20035;-81
2021/10/04 04:58:36;;;;;;;1.50;0.93;;;;;;;11.43;100.00;96267.69;4955941;28;20033;-82
2021/10/04 05:01:02;;;;;;;1.90;1.00;;;;;;;11.33;100.00;96270.50;4933611;28;20043;-82
2021/10/04 05:03:28;;;;;;;1.40;0.97;;;;;;;11.35;100.00;96266.88;4952347;28;20038;-82
2021/10/04 05:06:00;;;;;;;3.10;1.03;;;;;;;11.37;100.00;96265.72;4970592;28;20541;-82
2021/10/04 05:08:25;;;;;;;9.87;4.97;;;;;;;11.31;100.00;96267.19;4952483;28;20402;-82
2021/10/04 05:10:51;;;;;;;6.17;3.70;;;;;;;11.29;100.00;96270.97;4956073;28;20324;-82
2021/10/04 05:13:17;;;;;;;3.20;1.40;;;;;;;11.34;100.00;96266.06;4969298;28;20027;-82
2021/10/04 05:15:43;;;;;;;2.00;1.10;;;;;;;11.28;100.00;96270.16;4949965;28;20432;-81
2021/10/04 05:18:08;;;;;;;1.47;1.00;;;;;;;11.25;100.00;96280.19;4952637;28;20034;-81
2021/10/04 05:20:34;;;;;;;1.60;0.90;;;;;;;11.33;100.00;96285.44;4936146;28;20035;-81
2021/10/04 05:23:00;;;;;;;1.37;1.03;;;;;;;11.18;100.00;96285.28;4954015;28;20093;-81
2021/10/04 05:25:25;;;;;;;1.63;0.80;;;;;;;11.02;100.00;96288.69;4969932;28;20026;-76
2021/10/04 05:27:52;;;;;;;1.80;1.10;;;;;;;11.05;100.00;96269.94;4964567;28;20042;-76
2021/10/04 05:30:18;;;;;;;2.20;1.10;;;;;;;11.08;100.00;96272.25;4970997;28;20026;-75
2021/10/04 05:32:44;;;;;;;2.80;1.27;;;;;;;11.11;100.00;96278.19;4947174;28;20711;-75
2021/10/04 05:35:11;;;;;;;10.17;6.07;;;;;;;10.95;100.00;96281.59;4953272;28;20030;-75
2021/10/04 05:37:38;;;;;;;9.57;6.07;;;;;;;10.99;100.00;96285.56;4952675;28;20034;-75
2021/10/04 05:40:05;;;;;;;4.43;2.00;;;;;;;10.91;100.00;96291.63;4934674;28;20026;-76
2021/10/04 05:42:32;;;;;;;1.63;1.03;;;;;;;10.95;100.00;96303.47;4950266;28;20033;-76
2021/10/04 05:45:14;;;;;;;1.77;1.00;;;;;;;10.91;100.00;96307.41;4933390;28;20031;-75
2021/10/04 05:47:43;;;;;;;2.47;0.90;;;;;;;10.84;100.00;96309.84;4932468;28;20453;-76
2021/10/04 05:50:10;;;;;;;2.70;1.10;;;;;;;10.95;100.00;96306.09;4934440;28;20027;-75
2021/10/04 05:53:30;;;;;;;2.07;1.27;;;;;;;11.07;100.00;96312.72;4969170;28;20031;-75
2021/10/04 05:55:56;;;;;;;1.53;1.13;;;;;;;10.89;100.00;96313.81;4940285;28;20050;-77
2021/10/04 05:58:21;;;;;;;2.20;1.20;;;;;;;10.94;100.00;96316.78;4950653;28;20026;-76
2021/10/04 06:04:48;;;;;;;1.77;1.00;;;;;;;10.99;100.00;96304.78;4917174;29;20565;-76
2021/10/04 06:07:23;;;;;;;2.53;1.20;;;;;;;11.05;100.00;96312.03;4908022;28;20102;-76
2021/10/04 06:10:34;;;;;;;2.13;1.10;;;;;;;11.03;100.00;96321.06;4938983;29;20023;-76
2021/10/04 06:14:07;;;;;;;3.00;1.20;;;;;;;11.11;100.00;96325.56;4956868;28;20037;-77
2021/10/04 06:16:35;;;;;;;2.37;0.97;;;;;;;10.96;100.00;96341.13;4936075;28;20047;-77
2021/10/04 06:26:47;;;;;;;3.33;1.13;;;;;;;10.88;100.00;96370.03;4884851;29;20054;-76
2021/10/04 06:29:13;;;;;;;1.83;0.90;;;;;;;10.89;100.00;96367.25;4910112;29;20075;-76
2021/10/04 06:32:23;;;;;;;2.77;1.00;;;;;;;10.92;100.00;96372.19;4916443;29;20506;-76
2021/10/04 06:35:40;;;;;;;1.70;0.93;;;;;;;10.94;100.00;96372.88;4928229;29;20095;-76
2021/10/04 06:38:28;;;;;;;1.87;1.10;;;;;;;10.88;100.00;96378.75;4872789;29;20452;-77
2021/10/04 06:40:58;;;;;;;1.77;1.00;;;;;;;10.87;100.00;96392.91;4909324;29;20043;-77
2021/10/04 06:43:24;;;;;;;1.70;1.17;;;;;;;10.88;100.00;96391.09;4912318;29;20047;-77
2021/10/04 06:49:22;;;;;;;2.43;0.80;;;;;;;10.77;100.00;96386.94;4953853;28;20512;-77
2021/10/04 06:51:51;;;;;;;1.83;1.00;;;;;;;10.76;100.00;96387.91;4968892;28;20055;-77
2021/10/04 06:55:06;;;;;;;2.30;1.10;;;;;;;10.87;100.00;96390.28;4951898;28;20387;-77
2021/10/04 06:57:32;;;;;;;3.40;1.30;;;;;;;10.83;100.00;96396.81;4965380;28;20598;-77
2021/10/04 06:59:58;;;;;;;1.27;0.90;;;;;;;10.83;100.00;96399.44;4938717;28;20034;-76
2021/10/04 07:02:30;;;;;;;1.43;0.77;;;;;;;10.88;100.00;96399.81;4950463;28;20653;-77
2021/10/04 07:04:55;;;;;;;13.77;9.63;;;;;;;10.81;100.00;96402.25;4957165;28;20396;-77
2021/10/04 07:07:21;;;;;;;10.53;6.63;;;;;;;10.91;100.00;96402.13;4967161;28;20030;-77
2021/10/04 07:09:47;;;;;;;10.80;6.63;;;;;;;10.91;100.00;96412.66;4935265;28;20443;-76
2021/10/04 07:12:12;;;;;;;2.00;1.00;;;;;;;10.92;100.00;96419.56;4967274;28;20031;-76
2021/10/04 07:14:40;;;;;;;0.97;0.63;;;;;;;10.88;100.00;96418.22;4950125;28;20062;-76
2021/10/04 07:17:06;;;;;;;1.90;0.60;;;;;;;10.80;100.00;96412.94;4948502;28;20030;-76
2021/10/04 07:19:32;;;;;;;1.73;0.83;;;;;;;10.84;100.00;96416.91;4948671;28;20456;-76
2021/10/04 07:21:59;;;;;;;0.50;0.50;;;;;;;10.76;100.00;96419.47;4950347;28;20090;-77
2021/10/04 07:24:24;;;;;;;1.20;0.70;;;;;;;10.85;100.00;96414.09;4948334;28;20042;-77
2021/10/04 07:26:51;;;;;;;2.03;0.60;;;;;;;10.86;100.00;96414.91;4933896;28;20041;-77
2021/10/04 07:29:18;;;;;;;1.17;0.70;;;;;;;10.68;100.00;96422.88;4933589;28;20086;-77
2021/10/04 07:31:45;;;;;;;4.17;2.07;;;;;;;10.81;100.00;96431.19;4931244;28;20023;-81
2021/10/04 07:34:11;;;;;;;6.93;4.60;;;;;;;10.83;100.00;96436.28;4928639;29;20046;-81
2021/10/04 07:36:37;;;;;;;2.60;1.23;;;;;;;10.83;100.00;96446.78;4932705;28;20027;-81
2021/10/04 07:39:08;;;;;;;1.97;0.70;;;;;;;10.88;100.00;96449.78;4950627;28;20031;-81
2021/10/04 07:41:34;;;;;;;1.10;0.70;;;;;;;10.81;100.00;96454.03;4952830;28;20042;-81
2021/10/04 07:44:00;;;;;;;0.90;0.60;;;;;;;10.72;100.00;96450.50;4953790;28;20088;-81
2021/10/04 07:46:26;;;;;;;1.00;0.80;;;;;;;10.88;100.00;96454.25;4950104;28;20030;-81
2021/10/04 07:48:53;;;;;;;0.80;0.60;;;;;;;10.90;100.00;96453.09;4934996;28;20035;-81
2021/10/04 07:51:19;;;;;;;0.90;0.80;;;;;;;10.93;100.00;96458.06;4938319;28;20457;-81
2021/10/04 07:53:46;;;;;;;1.57;1.00;;;;;;;10.96;100.00;96452.47;4947490;28;20034;-81
2021/10/04 07:56:17;;;;;;;1.00;0.70;;;;;;;10.87;100.00;96456.06;4935913;28;20031;-81
2021/10/04 07:58:44;;;;;;;9.30;1.00;;;;;;;11.00;100.00;96466.97;4954537;28;20026;-81
2021/10/04 08:01:12;;;;;;;0.80;0.60;;;;;;;10.75;100.00;96473.06;4955445;28;20027;-81
2021/10/04 08:03:39;;;;;;;2.20;0.80;;;;;;;10.77;100.00;96469.31;4952792;28;20054;-81
2021/10/04 08:06:05;;;;;;;2.13;0.97;;;;;;;10.99;100.00;96467.13;4951939;28;20030;-82
2021/10/04 08:08:31;;;;;;;1.97;0.67;;;;;;;10.85;100.00;96476.41;4937051;28;20037;-81
2021/10/04 08:10:57;;;;;;;0.97;0.60;;;;;;;10.96;100.00;96475.31;4971088;28;20058;-81
2021/10/04 08:13:23;;;;;;;0.80;0.60;;;;;;;11.09;100.00;96484.44;4954119;28;20031;-82
2021/10/04 08:15:49;;;;;;;1.50;0.73;;;;;;;10.99;100.00;96486.34;4966360;28;20034;-81
2021/10/04 08:18:15;;;;;;;0.70;0.60;;;;;;;11.02;100.00;96486.06;4937307;28;20556;-81
2021/10/04 08:20:40;;;;;;;0.70;0.60;;;;;;;11.07;100.00;96491.69;4937343;28;20570;-81
2021/10/04 08:23:07;;;;;;;1.47;0.90;;;;;;;10.96;100.00;96497.19;4970286;28;20468;-81
2021/10/04 08:25:34;;;;;;;2.40;0.80;;;;;;;10.98;100.00;96503.13;4948243;28;20102;-81
2021/10/04 08:27:59;;;;;;;1.27;0.53;;;;;;;11.06;100.00;96507.63;4936880;28;20042;-81
2021/10/04 08:30:25;;;;;;;0.73;0.50;;;;;;;10.81;100.00;96515.38;4953082;28;20026;-81
2021/10/04 08:32:51;;;;;;;1.07;0.50;;;;;;;10.95;100.00;96513.16;4953599;28;20093;-81
2021/10/04 08:35:16;;;;;;;0.70;0.60;;;;;;;11.01;100.00;96513.34;4935778;28;20027;-81
2021/10/04 08:37:48;;;;;;;0.93;0.50;;;;;;;10.91;100.00;96510.00;4970833;28;20029;-81
2021/10/04 08:40:17;;;;;;;1.10;0.60;;;;;;;11.05;100.00;96506.78;4943972;28;20035;-82
2021/10/04 08:42:45;;;;;;;0.57;0.50;;;;;;;11.01;100.00;96492.31;4951268;28;20027;-81
2021/10/04 08:45:12;;;;;;;1.50;0.80;;;;;;;11.05;100.00;96492.81;4952370;28;20070;-81
2021/10/04 08:47:39;;;;;;;1.10;0.70;;;;;;;10.99;100.00;96493.44;4952889;28;20027;-81
2021/10/04 08:50:07;;;;;;;7.37;1.00;;;;;;;10.85;100.00;96497.47;4950625;28;20030;-81
2021/10/04 08:52:33;;;;;;;1.00;0.50;;;;;;;10.99;100.00;96510.03;4970403;28;20026;-82
2021/10/04 08:54:59;;;;;;;1.00;0.60;;;;;;;11.13;100.00;96511.28;4949736;28;20113;-81
2021/10/04 08:57:25;;;;;;;0.97;0.70;;;;;;;11.16;100.00;96515.41;4965522;28;20058;-81
2021/10/04 08:59:50;;;;;;;1.43;0.57;;;;;;;11.19;100.00;96510.66;4935901;28;20546;-82
2021/10/04 09:02:28;;;;;;;0.63;0.50;;;;;;;11.19;100.00;96504.56;4970107;28;20061;-82
2021/10/04 09:05:25;;;;;;;0.70;0.50;;;;;;;11.33;100.00;96509.25;4945904;28;20039;-81
2021/10/04 09:07:59;;;;;;;1.67;0.40;;;;;;;11.32;100.00;96518.13;4952695;28;20527;-81
2021/10/04 09:10:31;;;;;;;1.00;0.47;;;;;;;11.22;100.00;96520.88;4935518;28;20038;-81
2021/10/04 09:13:00;;;;;;;0.30;0.30;;;;;;;11.36;100.00;96532.63;4936322;28;20039;-81
2021/10/04 09:15:29;;;;;;;0.30;0.30;;;;;;;11.39;100.00;96520.97;4951890;28;20504;-82
2021/10/04 09:18:00;;;;;;;0.80;0.40;;;;;;;11.19;100.00;96520.38;4932202;29;20579;-82
2021/10/04 09:20:48;;;;;;;1.67;0.90;;;;;;;11.23;100.00;96525.19;4967645;28;20035;-82
2021/10/04 09:23:51;;;;;;;1.40;0.53;;;;;;;11.44;100.00;96529.22;4941671;28;20086;-82
2021/10/04 09:26:24;;;;;;;9.73;6.53;;;;;;;11.47;100.00;96523.66;4948782;28;20066;-81
2021/10/04 09:28:58;;;;;;;4.00;1.92;;;;;;;11.18;100.00;96529.25;4968837;28;20134;-81
2021/10/04 09:31:27;;;;;;;0.60;0.60;;;;;;;11.28;100.00;96529.97;4935600;28;20501;-81
2021/10/04 09:34:15;;;;;;;1.03;0.50;;;;;;;11.14;100.00;96531.38;4950902;28;20473;-81
2021/10/04 09:36:52;;;;;;;6.47;1.03;;;;;;;11.32;100.00;96528.66;4951269;28;20030;-82
2021/10/04 09:39:25;;;;;;;3.53;0.40;;;;;;;11.23;100.00;96533.09;4950122;28;20042;-81
2021/10/04 09:41:56;;;;;;;2.80;0.60;;;;;;;11.18;100.00;96537.16;4947198;28;20401;-82
2021/10/04 09:44:24;;;;;;;1.07;0.50;;;;;;;11.26;100.00;96537.19;4970143;28;20477;-81
2021/10/04 09:46:50;;;;;;;1.30;0.53;;;;;;;11.17;100.00;96541.59;4968663;28;20425;-82
2021/10/04 09:49:15;;;;;;;3.13;1.40;;;;;;;11.32;100.00;96541.84;4964147;28;20035;-81
2021/10/04 09:51:54;;;;;;;2.07;1.03;;;;;;;11.40;100.00;96547.16;4932947;28;20392;-82
2021/10/04 09:54:23;;;;;;;0.40;0.30;;;;;;;11.28;100.00;96543.94;4951609;28;20176;-82
2021/10/04 09:56:48;;;;;;;0.30;0.30;;;;;;;11.33;100.00;96549.59;4953577;28;20019;-82
2021/10/04 09:59:14;;;;;;;0.83;0.47;;;;;;;11.22;100.00;96557.72;4955215;28;20129;-83
2021/10/04 10:01:41;;;;;;;1.63;0.43;;;;;;;11.30;100.00;96551.69;4968924;28;20030;-82
2021/10/04 10:04:07;;;;;;;1.97;0.80;;;;;;;11.43;100.00;96557.34;4969219;28;20038;-82
2021/10/04 10:06:34;;;;;;;7.33;4.50;;;;;;;11.40;100.00;96552.44;4927502;28;20473;-82
2021/10/04 10:09:00;;;;;;;6.80;3.83;;;;;;;11.50;100.00;96558.41;4952215;28;20030;-82
2021/10/04 10:11:31;;;;;;;1.23;0.90;;;;;;;11.59;100.00;96561.06;4951969;28;20493;-82
2021/10/04 10:13:58;;;;;;;1.33;0.70;;;;;;;11.49;100.00;96569.91;4944388;28;20396;-83
2021/10/04 10:16:50;;;;;;;1.10;0.83;;;;;;;11.59;100.00;96572.41;4950452;28;20026;-82
2021/10/04 10:19:18;;;;;;;0.80;0.70;;;;;;;11.66;100.00;96569.97;4944151;28;20043;-81
2021/10/04 10:22:13;;;;;;;2.07;0.70;;;;;;;11.74;100.00;96564.78;4951879;28;20121;-82
2021/10/04 10:24:39;;;;;;;1.57;0.60;;;;;;;11.70;100.00;96558.13;4935884;28;20042;-82
2021/10/04 10:27:05;;;;;;;0.50;0.50;;;;;;;11.96;100.00;96561.56;4969716;28;20034;-81
2021/10/04 10:29:32;;;;;;;0.60;0.53;;;;;;;12.06;100.00;96560.63;4968863;28;20049;-81
2021/10/04 10:31:57;;;;;;;1.63;0.80;;;;;;;12.02;100.00;96560.94;4951263;28;20493;-82
2021/10/04 10:34:23;;;;;;;0.83;0.80;;;;;;;11.90;100.00;96558.75;4934611;28;20030;-81
2021/10/04 10:36:59;;;;;;;1.50;1.10;;;;;;;11.94;100.00;96554.84;4951460;28;20035;-81
2021/10/04 10:40:02;;;;;;;16.37;10.17;;;;;;;12.27;100.00;96545.16;4967277;28;20037;-81
2021/10/04 10:42:31;;;;;;;2.13;1.43;;;;;;;12.42;100.00;96548.84;4931155;28;20039;-82
2021/10/04 10:44:57;;;;;;;1.47;1.20;;;;;;;12.52;100.00;96555.78;4954623;28;20069;-81
2021/10/04 10:47:38;;;;;;;2.43;1.70;;;;;;;12.49;100.00;96554.28;4932674;28;20428;-81
2021/10/04 10:50:12;;;;;;;3.10;1.60;;;;;;;12.44;100.00;96560.06;4936550;28;20038;-81
2021/10/04 10:52:48;;;;;;;3.90;1.73;;;;;;;12.57;100.00;96556.09;4968970;28;21601;-81
2021/10/04 10:55:23;;;;;;;2.17;1.73;;;;;;;12.66;100.00;96550.66;4966320;28;20145;-82
2021/10/04 10:57:50;;;;;;;2.80;1.53;;;;;;;12.54;100.00;96549.34;4961123;28;20038;-81
2021/10/04 11:00:27;;;;;;;2.43;1.80;;;;;;;12.71;100.00;96545.72;4937630;28;20043;-81
2021/10/04 11:03:00;;;;;;;2.60;1.77;;;;;;;13.01;100.00;96534.66;4950906;28;20076;-81
2021/10/04 11:05:38;;;;;;;2.63;1.83;;;;;;;13.05;100.00;96534.16;4949347;28;20146;-81
2021/10/04 11:08:13;;;;;;;2.50;1.93;;;;;;;13.17;100.00;96524.88;4953319;28;20401;-81
2021/10/04 11:10:49;;;;;;;2.83;2.00;;;;;;;13.23;100.00;96528.69;4937715;28;20559;-81
2021/10/04 11:13:14;;;;;;;3.07;2.07;;;;;;;13.28;100.00;96531.69;4954136;28;20103;-81
2021/10/04 11:15:42;;;;;;;2.77;2.03;;;;;;;13.44;100.00;96531.59;4938004;28;20122;-81
2021/10/04 11:18:11;;;;;;;3.03;2.00;;;;;;;13.43;100.00;96529.97;4952692;28;20420;-82
2021/10/04 11:20:42;;;;;;;3.13;2.40;;;;;;;13.14;100.00;96537.59;4955177;28;20110;-82
2021/10/04 11:23:09;;;;;;;2.50;1.80;;;;;;;13.35;100.00;96531.81;4948315;28;20038;-81
2021/10/04 11:25:48;;;;;;;2.47;2.10;;;;;;;13.36;100.00;96529.00;4952203;28;20074;-82
2021/10/04 11:28:19;;;;;;;3.63;1.77;;;;;;;13.97;100.00;96533.72;4974300;28;20085;-81
2021/10/04 11:30:51;;;;;;;2.90;2.03;;;;;;;13.91;98.05;96537.88;4970426;28;20979;-81
2021/10/04 11:33:17;;;;;;;3.38;1.95;;;;;;;14.26;99.66;96525.97;4955066;28;20732;-81
2021/10/04 11:36:05;;;;;;;2.70;2.07;;;;;;;14.25;97.83;96529.63;4954696;28;20034;-82
2021/10/04 11:38:34;;;;;;;2.80;1.40;;;;;;;14.33;93.95;96521.63;4970313;28;20058;-81
2021/10/04 11:41:01;;;;;;;2.63;1.50;;;;;;;14.90;90.35;96511.63;4954502;28;20029;-82
2021/10/04 11:43:28;;;;;;;1.83;1.42;;;;;;;14.39;91.28;96504.22;4955077;28;20050;-81
2021/10/04 11:45:55;;;;;;;1.30;1.20;;;;;;;14.38;93.49;96506.06;4953952;28;20042;-82
2021/10/04 11:48:39;;;;;;;1.65;1.30;;;;;;;14.63;92.43;96497.94;4938034;28;20138;-81
2021/10/04 11:51:05;;;;;;;2.00;1.40;;;;;;;14.39;95.40;96510.34;4973087;28;20044;-81
2021/10/04 11:53:32;;;;;;;2.33;1.50;;;;;;;14.12;94.66;96506.38;4955384;28;20053;-81
2021/10/04 11:55:59;;;;;;;2.95;1.88;;;;;;;14.08;96.85;96502.44;4958281;28;20034;-81